createdAt,value
2023-04-01T00:00:19.329Z,18.15
2023-04-01T00:00:41.034Z,18.25
2023-04-01T00:01:04.245Z,18.25
2023-04-01T00:01:27.437Z,18.29
2023-04-01T00:01:49.073Z,18.30
2023-04-01T00:02:11.035Z,18.11
2023-04-01T00:02:33.391Z,18.02
2023-04-01T00:02:56.501Z,18.00
2023-04-01T00:03:18.351Z,17.84
2023-04-01T00:03:40.538Z,17.96
2023-04-01T00:04:03.094Z,17.85
2023-04-01T00:04:26.014Z,17.82
2023-04-01T00:04:47.682Z,17.93
2023-04-01T00:05:11.452Z,17.94
2023-04-01T00:05:33.304Z,17.94
2023-04-01T00:05:57.143Z,17.87
2023-04-01T00:06:19.487Z,17.99
2023-04-01T00:06:41.577Z,18.03
2023-04-01T00:07:04.626Z,17.93
2023-04-01T00:07:30.850Z,17.85
2023-04-01T00:07:52.844Z,17.90
2023-04-01T00:08:15.346Z,17.92
2023-04-01T00:08:36.901Z,17.97
2023-04-01T00:08:59.535Z,18.01
2023-04-01T00:09:21.550Z,18.02
2023-04-01T00:09:43.188Z,18.01
2023-04-01T00:10:05.591Z,18.09
2023-04-01T00:10:28.375Z,18.15
2023-04-01T00:10:50.190Z,18.18
2023-04-01T00:11:12.379Z,18.20
2023-04-01T00:11:35.034Z,18.22
2023-04-01T00:11:56.683Z,18.22
2023-04-01T00:12:18.343Z,18.28
2023-04-01T00:12:40.722Z,18.26
2023-04-01T00:13:02.698Z,18.23
2023-04-01T00:13:26.505Z,18.12
2023-04-01T00:13:49.754Z,18.23
2023-04-01T00:14:12.911Z,18.16
2023-04-01T00:14:35.782Z,18.20
2023-04-01T00:14:58.907Z,18.25
2023-04-01T00:15:21.113Z,18.20
2023-04-01T00:15:44.846Z,18.06
2023-04-01T00:16:19.821Z,18.16
2023-04-01T00:16:42.523Z,18.21
2023-04-01T00:17:05.245Z,18.00
2023-04-01T00:17:27.140Z,17.85
2023-04-01T00:17:49.184Z,17.96
2023-04-01T00:18:11.267Z,17.85
2023-04-01T00:18:32.870Z,17.79
2023-04-01T00:18:55.474Z,17.85
2023-04-01T00:19:17.228Z,17.87
2023-04-01T00:19:38.809Z,17.93
2023-04-01T00:20:00.459Z,17.91
2023-04-01T00:20:22.668Z,17.93
2023-04-01T00:20:46.489Z,17.79
2023-04-01T00:21:08.206Z,17.62
2023-04-01T00:21:30.120Z,17.67
2023-04-01T00:21:53.130Z,17.62
2023-04-01T00:22:17.621Z,17.65
2023-04-01T00:22:39.552Z,17.73
2023-04-01T00:23:01.397Z,17.59
2023-04-01T00:23:23.149Z,17.66
2023-04-01T00:23:45.811Z,17.54
2023-04-01T00:24:07.835Z,17.56
2023-04-01T00:24:29.491Z,17.62
2023-04-01T00:24:51.156Z,17.68
2023-04-01T00:25:12.823Z,17.65
2023-04-01T00:25:35.563Z,17.68
2023-04-01T00:25:57.283Z,17.77
2023-04-01T00:26:21.811Z,17.79
2023-04-01T00:26:45.519Z,17.79
2023-04-01T00:27:08.968Z,17.79
2023-04-01T00:27:30.702Z,17.90
2023-04-01T00:27:52.409Z,17.94
2023-04-01T00:28:15.022Z,17.99
2023-04-01T00:28:36.934Z,17.85
2023-04-01T00:28:59.471Z,17.78
2023-04-01T00:29:21.194Z,17.65
2023-04-01T00:29:44.433Z,17.61
2023-04-01T00:30:07.188Z,17.69
2023-04-01T00:30:28.965Z,17.79
2023-04-01T00:30:50.601Z,17.87
2023-04-01T00:31:14.097Z,17.88
2023-04-01T00:31:35.810Z,17.69
2023-04-01T00:31:57.666Z,17.72
2023-04-01T00:32:19.345Z,17.77
2023-04-01T00:32:42.105Z,17.79
2023-04-01T00:33:04.697Z,17.87
2023-04-01T00:33:26.441Z,17.94
2023-04-01T00:33:48.042Z,17.95
2023-04-01T00:34:10.922Z,17.79
2023-04-01T00:34:32.669Z,18.02
2023-04-01T00:34:54.502Z,17.93
2023-04-01T00:35:16.532Z,17.81
2023-04-01T00:35:38.393Z,17.78
2023-04-01T00:36:09.289Z,17.87
2023-04-01T00:36:39.767Z,17.79
2023-04-01T00:37:01.470Z,17.78
2023-04-01T00:37:25.527Z,17.85
2023-04-01T00:37:48.199Z,17.60
2023-04-01T00:38:12.257Z,17.58
2023-04-01T00:38:33.920Z,17.66
2023-04-01T00:38:58.034Z,17.78
2023-04-01T00:39:20.076Z,17.79
2023-04-01T00:39:41.655Z,17.88
2023-04-01T00:40:05.004Z,17.91
2023-04-01T00:40:29.320Z,17.63
2023-04-01T00:40:52.054Z,17.60
2023-04-01T00:41:18.946Z,17.39
2023-04-01T00:41:42.186Z,17.27
2023-04-01T00:42:05.025Z,17.35
2023-04-01T00:42:26.775Z,17.28
2023-04-01T00:42:49.387Z,17.21
2023-04-01T00:43:13.767Z,17.25
2023-04-01T00:43:36.576Z,17.34
2023-04-01T00:44:19.026Z,17.49
2023-04-01T00:44:41.974Z,17.52
2023-04-01T00:45:26.941Z,17.50
2023-04-01T00:45:50.932Z,17.62
2023-04-01T00:46:12.722Z,17.59
2023-04-01T00:46:36.532Z,17.66
2023-04-01T00:46:58.452Z,17.67
2023-04-01T00:47:21.514Z,17.58
2023-04-01T00:47:43.216Z,17.69
2023-04-01T00:48:08.310Z,17.55
2023-04-01T00:48:34.827Z,17.36
2023-04-01T00:48:58.531Z,17.43
2023-04-01T00:49:23.487Z,17.43
2023-04-01T00:49:47.648Z,17.51
2023-04-01T00:50:09.779Z,17.49
2023-04-01T00:50:34.544Z,17.45
2023-04-01T00:50:59.017Z,17.45
2023-04-01T00:51:25.159Z,17.53
2023-04-01T00:51:50.975Z,17.59
2023-04-01T00:52:15.325Z,17.60
2023-04-01T00:52:38.375Z,17.56
2023-04-01T00:53:02.254Z,17.46
2023-04-01T00:53:25.602Z,17.51
2023-04-01T00:53:50.773Z,17.46
2023-04-01T00:54:14.112Z,17.55
2023-04-01T00:54:37.313Z,17.59
2023-04-01T00:55:02.830Z,17.50
2023-04-01T00:55:29.459Z,17.54
2023-04-01T00:55:56.211Z,17.52
2023-04-01T00:56:23.303Z,17.41
2023-04-01T00:56:52.329Z,17.42
2023-04-01T00:57:20.714Z,17.48
2023-04-01T00:57:45.175Z,17.42
2023-04-01T00:58:12.821Z,17.43
2023-04-01T00:58:38.242Z,17.51
2023-04-01T00:59:02.907Z,17.59
2023-04-01T00:59:26.601Z,17.57
2023-04-01T00:59:53.652Z,17.58
2023-04-01T01:00:16.834Z,17.50
2023-04-01T01:00:39.365Z,17.58
2023-04-01T01:01:01.863Z,17.66
2023-04-01T01:01:26.395Z,17.64
2023-04-01T01:01:48.521Z,17.64
2023-04-01T01:02:13.244Z,17.72
2023-04-01T01:02:35.933Z,17.79
2023-04-01T01:02:58.044Z,17.86
2023-04-01T01:03:20.747Z,17.92
2023-04-01T01:03:42.431Z,17.90
2023-04-01T01:04:04.733Z,17.99
2023-04-01T01:04:28.766Z,18.04
2023-04-01T01:04:50.622Z,18.07
2023-04-01T01:05:15.411Z,18.13
2023-04-01T01:05:52.037Z,18.09
2023-04-01T01:06:27.441Z,18.09
2023-04-01T01:06:58.515Z,18.09
2023-04-01T01:07:28.026Z,17.94
2023-04-01T01:07:59.797Z,18.04
2023-04-01T01:08:38.503Z,18.00
2023-04-01T01:09:11.982Z,17.73
2023-04-01T01:09:42.529Z,17.66
2023-04-01T01:10:11.502Z,17.59
2023-04-01T01:10:35.886Z,17.57
2023-04-01T01:10:57.614Z,17.51
2023-04-01T01:11:33.521Z,17.47
2023-04-01T01:12:09.552Z,17.42
2023-04-01T01:12:36.490Z,17.52
2023-04-01T01:13:09.692Z,17.62
2023-04-01T01:13:38.089Z,17.69
2023-04-01T01:14:09.540Z,17.77
2023-04-01T01:14:43.048Z,17.83
2023-04-01T01:15:14.285Z,17.82
2023-04-01T01:15:45.178Z,17.79
2023-04-01T01:16:15.093Z,17.80
2023-04-01T01:16:45.619Z,17.81
2023-04-01T01:17:16.027Z,17.94
2023-04-01T01:17:49.598Z,17.96
2023-04-01T01:18:20.995Z,17.93
2023-04-01T01:18:52.072Z,17.90
2023-04-01T01:19:28.881Z,17.83
2023-04-01T01:20:26.365Z,17.85
2023-04-01T01:21:38.265Z,17.85
2023-04-01T01:22:21.341Z,17.84
2023-04-01T01:23:03.848Z,17.74
2023-04-01T01:24:04.509Z,17.87
2023-04-01T01:24:51.529Z,17.95
2023-04-01T01:25:28.467Z,17.69
2023-04-01T01:25:59.641Z,17.78
2023-04-01T01:26:38.042Z,17.78
2023-04-01T01:27:06.357Z,17.86
2023-04-01T01:27:32.374Z,17.92
2023-04-01T01:28:01.997Z,17.88
2023-04-01T01:28:38.438Z,17.95
2023-04-01T01:29:07.406Z,18.01
2023-04-01T01:29:50.036Z,17.88
2023-04-01T01:30:27.026Z,17.92
2023-04-01T01:30:57.394Z,17.99
2023-04-01T01:31:23.381Z,17.99
2023-04-01T01:31:58.039Z,18.07
2023-04-01T01:32:32.650Z,18.15
2023-04-01T01:33:14.546Z,18.17
2023-04-01T01:34:40.541Z,18.21
2023-04-01T01:35:23.700Z,17.82
2023-04-01T01:35:49.508Z,17.55
2023-04-01T01:36:17.465Z,17.54
2023-04-01T01:36:41.419Z,17.60
2023-04-01T01:37:11.106Z,17.53
2023-04-01T01:37:33.719Z,17.63
2023-04-01T01:38:00.597Z,17.71
2023-04-01T01:38:25.407Z,17.75
2023-04-01T01:38:54.772Z,17.79
2023-04-01T01:39:17.982Z,17.87
2023-04-01T01:39:41.674Z,17.70
2023-04-01T01:40:06.844Z,17.55
2023-04-01T01:40:33.002Z,17.57
2023-04-01T01:40:58.659Z,17.46
2023-04-01T01:41:23.056Z,17.51
2023-04-01T01:41:50.272Z,17.55
2023-04-01T01:42:17.374Z,17.56
2023-04-01T01:42:44.276Z,17.38
2023-04-01T01:43:09.695Z,17.47
2023-04-01T01:43:34.233Z,17.18
2023-04-01T01:43:58.780Z,17.14
2023-04-01T01:44:22.462Z,17.25
2023-04-01T01:44:47.944Z,17.30
2023-04-01T01:45:13.407Z,17.39
2023-04-01T01:45:39.868Z,17.43
2023-04-01T01:46:06.609Z,17.39
2023-04-01T01:46:29.817Z,17.48
2023-04-01T01:46:51.701Z,17.48
2023-04-01T01:47:16.433Z,17.41
2023-04-01T01:47:38.896Z,17.42
2023-04-01T01:48:03.848Z,17.27
2023-04-01T01:48:27.706Z,17.02
2023-04-01T01:48:52.988Z,17.35
2023-04-01T01:49:16.379Z,17.39
2023-04-01T01:49:40.611Z,17.35
2023-04-01T01:50:04.173Z,17.39
2023-04-01T01:50:29.624Z,17.11
2023-04-01T01:50:52.081Z,17.22
2023-04-01T01:51:15.576Z,17.02
2023-04-01T01:51:38.405Z,16.89
2023-04-01T01:52:02.027Z,16.97
2023-04-01T01:52:24.625Z,17.02
2023-04-01T01:52:48.482Z,17.00
2023-04-01T01:53:11.998Z,16.86
2023-04-01T01:53:34.839Z,16.92
2023-04-01T01:53:56.464Z,17.00
2023-04-01T01:54:20.280Z,17.10
2023-04-01T01:54:48.705Z,17.20
2023-04-01T01:55:29.298Z,17.34
2023-04-01T01:55:52.840Z,17.44
2023-04-01T01:56:14.920Z,17.50
2023-04-01T01:56:40.589Z,17.55
2023-04-01T01:57:07.325Z,17.61
2023-04-01T01:57:34.783Z,17.56
2023-04-01T01:58:01.832Z,17.60
2023-04-01T01:58:29.965Z,17.54
2023-04-01T01:58:56.733Z,17.60
2023-04-01T01:59:23.081Z,17.54
2023-04-01T01:59:47.913Z,17.50
2023-04-01T02:00:18.982Z,17.49
2023-04-01T02:00:45.138Z,17.54
2023-04-01T02:01:12.301Z,17.61
2023-04-01T02:01:39.484Z,17.53
2023-04-01T02:02:09.545Z,17.58
2023-04-01T02:02:33.037Z,17.55
2023-04-01T02:02:55.059Z,17.47
2023-04-01T02:03:20.440Z,17.54
2023-04-01T02:03:44.826Z,17.52
2023-04-01T02:04:08.659Z,17.48
2023-04-01T02:04:31.531Z,17.52
2023-04-01T02:04:55.068Z,17.47
2023-04-01T02:05:19.817Z,17.46
2023-04-01T02:05:43.601Z,17.47
2023-04-01T02:06:09.713Z,17.59
2023-04-01T02:06:35.855Z,17.55
2023-04-01T02:07:02.798Z,17.45
2023-04-01T02:07:29.128Z,17.46
2023-04-01T02:07:58.260Z,17.44
2023-04-01T02:08:25.850Z,17.38
2023-04-01T02:08:52.306Z,17.46
2023-04-01T02:09:15.503Z,17.47
2023-04-01T02:09:37.631Z,17.55
2023-04-01T02:09:59.845Z,17.58
2023-04-01T02:10:26.458Z,17.48
2023-04-01T02:10:57.315Z,17.50
2023-04-01T02:11:22.693Z,17.41
2023-04-01T02:11:50.680Z,17.39
2023-04-01T02:12:17.744Z,17.43
2023-04-01T02:12:41.746Z,17.43
2023-04-01T02:13:10.627Z,17.46
2023-04-01T02:13:37.809Z,17.57
2023-04-01T02:14:06.320Z,17.52
2023-04-01T02:14:31.632Z,17.57
2023-04-01T02:14:56.754Z,17.51
2023-04-01T02:15:21.503Z,17.20
2023-04-01T02:15:48.002Z,17.14
2023-04-01T02:16:15.375Z,17.24
2023-04-01T02:16:43.244Z,17.21
2023-04-01T02:17:08.990Z,17.26
2023-04-01T02:17:33.016Z,17.33
2023-04-01T02:17:57.895Z,17.31
2023-04-01T02:18:21.349Z,16.91
2023-04-01T02:18:45.568Z,16.98
2023-04-01T02:19:08.542Z,17.04
2023-04-01T02:19:36.086Z,17.05
2023-04-01T02:20:00.776Z,17.03
2023-04-01T02:20:24.804Z,17.03
2023-04-01T02:20:47.918Z,17.04
2023-04-01T02:21:12.285Z,17.06
2023-04-01T02:21:36.197Z,17.14
2023-04-01T02:22:00.661Z,17.14
2023-04-01T02:22:26.952Z,17.22
2023-04-01T02:22:51.105Z,17.14
2023-04-01T02:23:13.568Z,17.14
2023-04-01T02:23:38.333Z,17.06
2023-04-01T02:24:02.753Z,17.07
2023-04-01T02:24:28.032Z,17.07
2023-04-01T02:24:51.515Z,17.09
2023-04-01T02:25:18.341Z,17.09
2023-04-01T02:25:42.769Z,17.09
2023-04-01T02:26:07.354Z,16.92
2023-04-01T02:26:29.457Z,17.03
2023-04-01T02:26:52.426Z,17.08
2023-04-01T02:27:14.522Z,17.16
2023-04-01T02:27:37.704Z,17.21
2023-04-01T02:28:00.989Z,17.26
2023-04-01T02:28:24.586Z,17.27
2023-04-01T02:28:49.991Z,17.23
2023-04-01T02:29:13.207Z,16.97
2023-04-01T02:29:35.083Z,16.97
2023-04-01T02:29:56.827Z,17.06
2023-04-01T02:30:20.962Z,17.12
2023-04-01T02:30:44.225Z,17.01
2023-04-01T02:31:06.982Z,17.07
2023-04-01T02:31:29.610Z,17.03
2023-04-01T02:31:53.388Z,17.04
2023-04-01T02:32:16.119Z,17.05
2023-04-01T02:32:39.319Z,17.05
2023-04-01T02:33:02.327Z,17.01
2023-04-01T02:33:26.798Z,17.10
2023-04-01T02:33:49.021Z,17.17
2023-04-01T02:34:10.796Z,17.14
2023-04-01T02:34:33.884Z,17.30
2023-04-01T02:34:56.641Z,17.33
2023-04-01T02:35:19.129Z,17.26
2023-04-01T02:35:41.071Z,17.37
2023-04-01T02:36:05.595Z,17.39
2023-04-01T02:36:28.488Z,17.42
2023-04-01T02:36:51.237Z,17.38
2023-04-01T02:37:13.791Z,17.43
2023-04-01T02:37:36.835Z,17.43
2023-04-01T02:38:02.794Z,17.37
2023-04-01T02:38:24.626Z,17.44
2023-04-01T02:38:48.812Z,17.46
2023-04-01T02:39:10.507Z,17.50
2023-04-01T02:39:33.245Z,17.49
2023-04-01T02:39:54.960Z,17.47
2023-04-01T02:40:17.997Z,17.54
2023-04-01T02:40:46.052Z,17.52
2023-04-01T02:41:08.976Z,17.50
2023-04-01T02:41:30.953Z,17.49
2023-04-01T02:41:53.396Z,17.45
2023-04-01T02:42:16.115Z,17.44
2023-04-01T02:42:45.699Z,17.39
2023-04-01T02:43:07.601Z,17.33
2023-04-01T02:43:29.685Z,17.24
2023-04-01T02:43:52.055Z,17.19
2023-04-01T02:44:17.271Z,17.06
2023-04-01T02:44:39.875Z,17.02
2023-04-01T02:45:01.529Z,16.97
2023-04-01T02:45:23.219Z,16.98
2023-04-01T02:45:44.846Z,17.10
2023-04-01T02:46:09.156Z,16.99
2023-04-01T02:46:31.775Z,17.21
2023-04-01T02:46:54.042Z,17.27
2023-04-01T02:47:16.077Z,17.10
2023-04-01T02:47:37.851Z,17.20
2023-04-01T02:48:00.836Z,17.14
2023-04-01T02:48:22.671Z,17.03
2023-04-01T02:48:44.356Z,17.04
2023-04-01T02:49:06.869Z,17.13
2023-04-01T02:49:29.545Z,16.97
2023-04-01T02:49:51.192Z,16.92
2023-04-01T02:50:13.065Z,16.89
2023-04-01T02:50:35.432Z,16.95
2023-04-01T02:50:57.263Z,17.03
2023-04-01T02:51:21.270Z,17.07
2023-04-01T02:51:42.939Z,16.93
2023-04-01T02:52:05.594Z,17.14
2023-04-01T02:52:30.187Z,17.13
2023-04-01T02:52:55.104Z,17.17
2023-04-01T02:53:18.197Z,17.21
2023-04-01T02:53:39.863Z,17.14
2023-04-01T02:54:01.726Z,17.13
2023-04-01T02:54:23.986Z,17.14
2023-04-01T02:54:46.659Z,17.20
2023-04-01T02:55:09.706Z,17.21
2023-04-01T02:55:32.242Z,17.17
2023-04-01T02:55:54.060Z,17.26
2023-04-01T02:56:16.681Z,17.31
2023-04-01T02:56:39.660Z,17.32
2023-04-01T02:57:01.454Z,17.34
2023-04-01T02:57:23.172Z,17.42
2023-04-01T02:57:44.825Z,17.41
2023-04-01T02:58:07.586Z,17.41
2023-04-01T02:58:29.621Z,17.41
2023-04-01T02:58:51.735Z,17.42
2023-04-01T02:59:13.326Z,17.26
2023-04-01T02:59:36.271Z,17.24
2023-04-01T02:59:58.507Z,17.12
2023-04-01T03:00:22.717Z,17.14
2023-04-01T03:00:45.527Z,17.18
2023-04-01T03:01:09.207Z,17.11
2023-04-01T03:01:31.116Z,17.23
2023-04-01T03:01:52.944Z,17.28
2023-04-01T03:02:16.252Z,17.19
2023-04-01T03:02:40.173Z,17.13
2023-04-01T03:03:02.019Z,17.12
2023-04-01T03:03:24.048Z,17.09
2023-04-01T03:03:46.067Z,17.25
2023-04-01T03:04:08.909Z,17.11
2023-04-01T03:04:31.081Z,17.01
2023-04-01T03:04:53.099Z,17.11
2023-04-01T03:05:16.648Z,17.14
2023-04-01T03:05:39.233Z,17.19
2023-04-01T03:06:06.314Z,17.20
2023-04-01T03:06:29.274Z,17.25
2023-04-01T03:06:52.012Z,17.26
2023-04-01T03:07:14.714Z,17.26
2023-04-01T03:07:36.928Z,17.29
2023-04-01T03:07:58.588Z,17.28
2023-04-01T03:08:20.270Z,17.25
2023-04-01T03:08:42.916Z,17.22
2023-04-01T03:09:04.719Z,17.17
2023-04-01T03:09:26.637Z,17.18
2023-04-01T03:09:48.224Z,17.16
2023-04-01T03:10:10.579Z,17.18
2023-04-01T03:10:33.246Z,17.22
2023-04-01T03:10:55.802Z,17.21
2023-04-01T03:11:17.738Z,17.18
2023-04-01T03:11:39.532Z,17.16
2023-04-01T03:12:03.527Z,17.18
2023-04-01T03:12:30.928Z,17.20
2023-04-01T03:12:52.638Z,17.17
2023-04-01T03:13:14.286Z,17.15
2023-04-01T03:13:36.364Z,17.19
2023-04-01T03:13:58.971Z,17.20
2023-04-01T03:14:20.879Z,17.20
2023-04-01T03:14:42.462Z,17.25
2023-04-01T03:15:10.610Z,17.18
2023-04-01T03:15:34.062Z,17.22
2023-04-01T03:15:56.463Z,17.14
2023-04-01T03:16:18.212Z,17.28
2023-04-01T03:16:40.032Z,17.34
2023-04-01T03:17:02.882Z,17.28
2023-04-01T03:17:24.918Z,17.25
2023-04-01T03:17:47.762Z,17.27
2023-04-01T03:18:09.486Z,17.22
2023-04-01T03:18:31.209Z,17.22
2023-04-01T03:18:57.771Z,17.19
2023-04-01T03:19:19.458Z,17.12
2023-04-01T03:19:41.370Z,17.16
2023-04-01T03:20:05.891Z,17.06
2023-04-01T03:20:29.627Z,17.03
2023-04-01T03:20:51.397Z,17.13
2023-04-01T03:21:15.333Z,17.17
2023-04-01T03:21:38.744Z,17.18
2023-04-01T03:22:00.603Z,17.17
2023-04-01T03:22:23.542Z,17.21
2023-04-01T03:22:45.288Z,17.18
2023-04-01T03:23:06.955Z,17.19
2023-04-01T03:23:28.633Z,17.00
2023-04-01T03:23:50.681Z,17.00
2023-04-01T03:24:13.283Z,16.86
2023-04-01T03:24:35.283Z,16.91
2023-04-01T03:24:56.967Z,16.92
2023-04-01T03:25:19.226Z,16.98
2023-04-01T03:25:41.862Z,17.04
2023-04-01T03:26:03.560Z,17.00
2023-04-01T03:26:25.469Z,17.14
2023-04-01T03:26:47.116Z,17.19
2023-04-01T03:27:08.851Z,17.27
2023-04-01T03:27:31.764Z,17.19
2023-04-01T03:27:54.859Z,17.13
2023-04-01T03:28:17.234Z,17.22
2023-04-01T03:28:39.258Z,17.30
2023-04-01T03:29:01.121Z,17.28
2023-04-01T03:29:24.123Z,17.35
2023-04-01T03:29:46.026Z,17.34
2023-04-01T03:30:09.137Z,17.36
2023-04-01T03:30:37.236Z,17.26
2023-04-01T03:30:59.202Z,17.16
2023-04-01T03:31:23.722Z,17.11
2023-04-01T03:31:49.540Z,17.06
2023-04-01T03:32:11.178Z,17.00
2023-04-01T03:32:33.302Z,17.02
2023-04-01T03:32:56.063Z,17.03
2023-04-01T03:33:17.849Z,17.07
2023-04-01T03:33:39.532Z,17.10
2023-04-01T03:34:01.150Z,17.13
2023-04-01T03:34:23.160Z,17.12
2023-04-01T03:34:45.801Z,17.12
2023-04-01T03:35:10.688Z,17.19
2023-04-01T03:35:32.776Z,17.23
2023-04-01T03:35:54.593Z,17.23
2023-04-01T03:36:16.458Z,17.21
2023-04-01T03:36:40.787Z,17.20
2023-04-01T03:37:02.795Z,17.17
2023-04-01T03:37:27.844Z,17.12
2023-04-01T03:37:51.149Z,17.16
2023-04-01T03:38:13.819Z,17.24
2023-04-01T03:38:36.298Z,17.19
2023-04-01T03:38:57.861Z,17.08
2023-04-01T03:39:28.947Z,17.12
2023-04-01T03:39:51.654Z,17.20
2023-04-01T03:40:15.611Z,17.23
2023-04-01T03:40:39.240Z,17.14
2023-04-01T03:41:01.672Z,17.22
2023-04-01T03:41:24.312Z,17.18
2023-04-01T03:41:46.650Z,17.11
2023-04-01T03:42:08.278Z,17.15
2023-04-01T03:42:32.342Z,17.06
2023-04-01T03:42:55.142Z,17.06
2023-04-01T03:43:17.676Z,17.00
2023-04-01T03:43:39.507Z,16.95
2023-04-01T03:44:01.084Z,16.87
2023-04-01T03:44:22.666Z,16.88
2023-04-01T03:44:48.582Z,16.88
2023-04-01T03:45:12.775Z,16.95
2023-04-01T03:45:34.611Z,16.89
2023-04-01T03:45:58.364Z,16.96
2023-04-01T03:46:21.921Z,16.88
2023-04-01T03:46:43.738Z,16.73
2023-04-01T03:47:05.543Z,16.71
2023-04-01T03:47:27.218Z,16.62
2023-04-01T03:47:48.974Z,16.65
2023-04-01T03:48:11.953Z,16.58
2023-04-01T03:48:33.659Z,16.59
2023-04-01T03:48:55.632Z,16.61
2023-04-01T03:49:17.299Z,16.59
2023-04-01T03:49:39.901Z,16.60
2023-04-01T03:50:01.930Z,16.51
2023-04-01T03:50:23.630Z,16.51
2023-04-01T03:50:45.679Z,16.57
2023-04-01T03:51:09.100Z,16.67
2023-04-01T03:51:31.225Z,16.74
2023-04-01T03:51:54.400Z,16.77
2023-04-01T03:52:16.114Z,16.79
2023-04-01T03:52:38.968Z,16.89
2023-04-01T03:53:00.585Z,16.94
2023-04-01T03:53:22.241Z,16.84
2023-04-01T03:53:44.723Z,16.90
2023-04-01T03:54:08.740Z,16.96
2023-04-01T03:54:30.455Z,16.95
2023-04-01T03:54:52.067Z,16.95
2023-04-01T03:55:16.414Z,16.87
2023-04-01T03:55:39.750Z,16.91
2023-04-01T03:56:05.735Z,16.81
2023-04-01T03:56:27.789Z,16.80
2023-04-01T03:56:50.840Z,16.81
2023-04-01T03:57:12.810Z,16.71
2023-04-01T03:57:34.827Z,16.74
2023-04-01T03:58:09.141Z,16.42
2023-04-01T03:58:30.795Z,16.59
2023-04-01T03:58:53.408Z,16.62
2023-04-01T03:59:15.310Z,16.54
2023-04-01T03:59:38.142Z,16.63
2023-04-01T04:00:01.868Z,16.61
2023-04-01T04:00:24.126Z,16.70
2023-04-01T04:00:49.568Z,16.75
2023-04-01T04:01:17.831Z,16.87
2023-04-01T04:01:41.383Z,16.93
2023-04-01T04:02:03.670Z,16.99
2023-04-01T04:02:26.279Z,17.03
2023-04-01T04:02:48.178Z,17.08
2023-04-01T04:03:16.883Z,17.17
2023-04-01T04:03:39.674Z,17.14
2023-04-01T04:04:01.894Z,17.01
2023-04-01T04:04:23.624Z,17.06
2023-04-01T04:04:47.297Z,17.10
2023-04-01T04:05:09.416Z,17.08
2023-04-01T04:05:32.716Z,17.05
2023-04-01T04:05:54.758Z,17.07
2023-04-01T04:06:19.221Z,17.04
2023-04-01T04:06:41.488Z,17.09
2023-04-01T04:07:04.661Z,17.13
2023-04-01T04:07:39.602Z,17.20
2023-04-01T04:08:04.424Z,17.22
2023-04-01T04:08:26.867Z,17.27
2023-04-01T04:08:48.561Z,17.28
2023-04-01T04:09:10.429Z,17.33
2023-04-01T04:09:33.079Z,17.22
2023-04-01T04:09:54.709Z,17.35
2023-04-01T04:10:16.455Z,17.29
2023-04-01T04:10:38.050Z,17.19
2023-04-01T04:11:01.108Z,17.09
2023-04-01T04:11:24.174Z,17.07
2023-04-01T04:11:47.659Z,17.10
2023-04-01T04:12:10.329Z,17.13
2023-04-01T04:12:32.504Z,17.12
2023-04-01T04:12:54.178Z,17.14
2023-04-01T04:13:17.751Z,17.09
2023-04-01T04:13:46.673Z,17.18
2023-04-01T04:14:08.410Z,17.24
2023-04-01T04:14:30.272Z,17.20
2023-04-01T04:14:51.989Z,17.07
2023-04-01T04:15:14.593Z,17.21
2023-04-01T04:15:36.281Z,17.22
2023-04-01T04:15:57.987Z,17.10
2023-04-01T04:16:20.777Z,17.02
2023-04-01T04:16:49.484Z,17.06
2023-04-01T04:17:16.972Z,17.11
2023-04-01T04:17:39.422Z,17.18
2023-04-01T04:18:04.492Z,17.19
2023-04-01T04:18:26.393Z,17.17
2023-04-01T04:18:48.072Z,17.15
2023-04-01T04:19:10.849Z,17.11
2023-04-01T04:19:34.724Z,17.13
2023-04-01T04:19:56.640Z,17.17
2023-04-01T04:20:18.444Z,17.06
2023-04-01T04:20:47.995Z,17.06
2023-04-01T04:21:13.393Z,17.09
2023-04-01T04:21:35.211Z,17.10
2023-04-01T04:21:57.898Z,17.10
2023-04-01T04:22:20.924Z,17.03
2023-04-01T04:22:42.550Z,17.00
2023-04-01T04:23:04.492Z,17.06
2023-04-01T04:23:28.093Z,17.11
2023-04-01T04:23:49.842Z,17.20
2023-04-01T04:24:13.550Z,17.25
2023-04-01T04:24:56.697Z,17.19
2023-04-01T04:25:18.989Z,17.14
2023-04-01T04:25:40.699Z,16.94
2023-04-01T04:26:05.264Z,17.00
2023-04-01T04:26:28.534Z,17.03
2023-04-01T04:26:55.373Z,17.08
2023-04-01T04:27:17.049Z,17.14
2023-04-01T04:27:50.384Z,17.22
2023-04-01T04:28:13.278Z,17.28
2023-04-01T04:28:35.138Z,17.27
2023-04-01T04:28:57.012Z,17.17
2023-04-01T04:29:19.678Z,17.13
2023-04-01T04:29:41.884Z,17.15
2023-04-01T04:30:04.726Z,17.21
2023-04-01T04:30:26.381Z,17.17
2023-04-01T04:30:48.339Z,17.25
2023-04-01T04:31:11.039Z,17.27
2023-04-01T04:31:36.172Z,17.28
2023-04-01T04:31:58.153Z,17.31
2023-04-01T04:32:20.068Z,17.12
2023-04-01T04:32:43.038Z,17.13
2023-04-01T04:33:06.454Z,17.12
2023-04-01T04:33:28.287Z,17.09
2023-04-01T04:33:50.313Z,17.13
2023-04-01T04:34:12.955Z,17.10
2023-04-01T04:34:34.873Z,17.05
2023-04-01T04:34:56.497Z,17.10
2023-04-01T04:35:18.220Z,16.98
2023-04-01T04:35:40.686Z,16.88
2023-04-01T04:36:05.425Z,16.90
2023-04-01T04:36:29.212Z,16.69
2023-04-01T04:36:50.982Z,16.57
2023-04-01T04:37:14.308Z,16.54
2023-04-01T04:37:38.318Z,16.61
2023-04-01T04:38:00.348Z,16.73
2023-04-01T04:38:23.051Z,16.79
2023-04-01T04:38:47.181Z,16.87
2023-04-01T04:39:09.853Z,16.92
2023-04-01T04:39:33.816Z,16.91
2023-04-01T04:39:55.477Z,16.92
2023-04-01T04:40:17.388Z,16.92
2023-04-01T04:40:40.413Z,16.90
2023-04-01T04:41:02.456Z,17.02
2023-04-01T04:41:26.804Z,17.04
2023-04-01T04:41:48.481Z,17.10
2023-04-01T04:42:11.157Z,17.13
2023-04-01T04:42:32.878Z,17.18
2023-04-01T04:43:02.572Z,17.12
2023-04-01T04:43:24.248Z,17.03
2023-04-01T04:43:52.060Z,16.94
2023-04-01T04:44:14.024Z,16.85
2023-04-01T04:44:35.792Z,16.74
2023-04-01T04:44:57.450Z,16.78
2023-04-01T04:45:20.106Z,16.54
2023-04-01T04:45:49.013Z,16.62
2023-04-01T04:46:11.411Z,16.63
2023-04-01T04:46:33.990Z,16.63
2023-04-01T04:47:06.501Z,16.53
2023-04-01T04:47:30.550Z,16.57
2023-04-01T04:47:52.549Z,16.68
2023-04-01T04:48:19.391Z,16.68
2023-04-01T04:48:42.515Z,16.53
2023-04-01T04:49:04.269Z,16.53
2023-04-01T04:49:25.837Z,16.33
2023-04-01T04:49:48.621Z,16.39
2023-04-01T04:50:11.225Z,16.42
2023-04-01T04:50:34.651Z,16.47
2023-04-01T04:50:56.259Z,16.56
2023-04-01T04:51:21.196Z,16.61
2023-04-01T04:51:43.237Z,16.50
2023-04-01T04:52:05.437Z,16.48
2023-04-01T04:52:27.182Z,16.52
2023-04-01T04:52:51.208Z,16.50
2023-04-01T04:53:14.288Z,16.53
2023-04-01T04:53:36.010Z,16.53
2023-04-01T04:53:58.782Z,16.59
2023-04-01T04:54:32.490Z,16.64
2023-04-01T04:54:56.203Z,16.64
2023-04-01T04:55:18.484Z,16.59
2023-04-01T04:55:49.660Z,16.48
2023-04-01T04:56:26.899Z,16.57
2023-04-01T04:56:55.931Z,16.70
2023-04-01T04:57:20.482Z,16.70
2023-04-01T04:57:48.897Z,16.65
2023-04-01T04:58:11.491Z,16.69
2023-04-01T04:58:37.084Z,16.72
2023-04-01T04:59:02.740Z,16.76
2023-04-01T04:59:38.292Z,16.80
2023-04-01T05:00:19.869Z,16.76
2023-04-01T05:00:51.880Z,16.84
2023-04-01T05:01:21.675Z,16.92
2023-04-01T05:01:43.377Z,16.94
2023-04-01T05:02:05.078Z,16.99
2023-04-01T05:02:27.755Z,16.99
2023-04-01T05:02:49.702Z,16.99
2023-04-01T05:03:14.095Z,17.06
2023-04-01T05:03:36.065Z,17.08
2023-04-01T05:03:59.853Z,17.12
2023-04-01T05:04:21.546Z,17.14
2023-04-01T05:04:45.803Z,17.04
2023-04-01T05:05:08.389Z,17.16
2023-04-01T05:05:31.214Z,17.13
2023-04-01T05:05:54.665Z,17.09
2023-04-01T05:06:17.766Z,17.10
2023-04-01T05:06:40.422Z,17.15
2023-04-01T05:07:02.354Z,17.13
2023-04-01T05:07:24.690Z,17.12
2023-04-01T05:07:47.643Z,17.14
2023-04-01T05:08:11.865Z,17.09
2023-04-01T05:08:34.892Z,17.10
2023-04-01T05:08:57.656Z,17.05
2023-04-01T05:09:20.423Z,17.11
2023-04-01T05:09:42.154Z,17.07
2023-04-01T05:10:04.893Z,17.04
2023-04-01T05:10:26.828Z,16.98
2023-04-01T05:10:48.561Z,16.97
2023-04-01T05:11:15.006Z,16.95
2023-04-01T05:11:38.495Z,16.72
2023-04-01T05:12:00.691Z,16.69
2023-04-01T05:12:28.012Z,16.66
2023-04-01T05:13:00.776Z,16.52
2023-04-01T05:13:23.057Z,16.55
2023-04-01T05:13:45.332Z,16.59
2023-04-01T05:14:07.991Z,16.52
2023-04-01T05:14:29.742Z,16.30
2023-04-01T05:14:58.898Z,16.40
2023-04-01T05:15:21.948Z,16.50